createdAt,value
2022-12-08T00:04:25.943Z,15.84
2022-12-08T00:09:37.999Z,17.75
2022-12-08T00:14:43.513Z,14.10
2022-12-08T00:19:48.218Z,15.53
2022-12-08T00:24:51.596Z,14.42
2022-12-08T00:29:54.899Z,13.69
2022-12-08T00:34:59.551Z,18.34
2022-12-08T00:40:03.242Z,16.20
2022-12-08T00:45:07.350Z,15.84
2022-12-08T00:50:12.484Z,13.22
2022-12-08T00:55:15.934Z,11.83
2022-12-08T01:00:21.859Z,13.13
2022-12-08T01:05:28.795Z,13.13
2022-12-08T01:10:36.531Z,12.47
2022-12-08T01:15:39.881Z,11.72
2022-12-08T01:20:44.523Z,11.45
2022-12-08T01:25:48.368Z,10.98
2022-12-08T01:30:54.060Z,12.43
2022-12-08T01:36:03.531Z,12.45
2022-12-08T01:41:07.087Z,11.99
2022-12-08T01:46:10.466Z,10.75
2022-12-08T01:51:15.726Z,10.75
2022-12-08T01:56:22.996Z,11.46
2022-12-08T02:01:26.646Z,12.20
2022-12-08T02:06:34.373Z,12.68
2022-12-08T02:11:37.706Z,11.83
2022-12-08T02:16:47.823Z,12.17
2022-12-08T02:21:58.086Z,12.35
2022-12-08T02:27:16.441Z,12.06
2022-12-08T02:32:30.800Z,12.98
2022-12-08T02:37:41.507Z,13.53
2022-12-08T02:42:49.971Z,12.44
2022-12-08T02:47:55.702Z,12.49
2022-12-08T02:53:01.901Z,12.02
2022-12-08T02:58:25.849Z,18.16
2022-12-08T03:03:33.858Z,11.99
2022-12-08T03:08:43.972Z,11.21
2022-12-08T03:13:52.955Z,11.54
2022-12-08T03:19:01.824Z,11.50
2022-12-08T03:24:11.544Z,9.59
2022-12-08T03:29:15.785Z,7.95
2022-12-08T03:34:20.968Z,8.14
2022-12-08T03:39:25.639Z,8.67
2022-12-08T03:44:28.952Z,9.41
2022-12-08T03:49:32.226Z,9.02
2022-12-08T03:54:39.059Z,8.26
2022-12-08T03:59:42.651Z,9.91
2022-12-08T04:04:46.023Z,9.97
2022-12-08T04:09:53.049Z,10.88
2022-12-08T04:14:56.343Z,11.89
2022-12-08T04:19:59.662Z,10.89
2022-12-08T04:25:04.578Z,10.42
2022-12-08T04:30:10.719Z,10.01
2022-12-08T04:35:14.031Z,12.28
2022-12-08T04:40:19.025Z,10.96
2022-12-08T04:45:24.377Z,17.36
2022-12-08T04:50:28.287Z,15.45
2022-12-08T04:55:32.977Z,11.96
2022-12-08T05:00:36.300Z,11.41
2022-12-08T05:05:39.985Z,11.46
2022-12-08T05:10:44.688Z,11.11
2022-12-08T05:15:48.052Z,14.94
2022-12-08T05:20:51.378Z,16.88
2022-12-08T05:25:56.102Z,17.31
2022-12-08T05:30:59.504Z,17.32
2022-12-08T05:36:02.809Z,16.37
2022-12-08T05:41:08.182Z,16.76
2022-12-08T05:46:14.793Z,17.43
2022-12-08T05:51:19.815Z,18.48
2022-12-08T05:56:27.562Z,18.49
2022-12-08T06:01:33.085Z,17.80
2022-12-08T06:06:37.037Z,18.90
2022-12-08T06:11:43.944Z,19.67
2022-12-08T06:16:49.670Z,18.86
2022-12-08T06:21:53.041Z,19.90
2022-12-08T06:26:57.759Z,19.74
2022-12-08T06:32:01.169Z,18.91
2022-12-08T06:37:04.580Z,19.43
2022-12-08T06:42:26.772Z,21.28
2022-12-08T06:47:30.121Z,19.57
2022-12-08T06:52:34.900Z,20.52
2022-12-08T06:57:41.429Z,19.91
2022-12-08T07:02:44.919Z,19.74
2022-12-08T07:07:48.428Z,19.15
2022-12-08T07:12:55.752Z,17.62
2022-12-08T07:18:00.421Z,18.73
2022-12-08T07:23:08.640Z,19.00
2022-12-08T07:28:15.544Z,18.82
2022-12-08T07:33:20.936Z,21.34
2022-12-08T07:38:24.358Z,18.65
2022-12-08T07:43:29.028Z,18.99
2022-12-08T07:48:32.356Z,17.82
2022-12-08T07:53:35.709Z,17.12
2022-12-08T07:58:40.873Z,17.56
2022-12-08T08:03:44.902Z,17.22
2022-12-08T08:08:48.795Z,18.03
2022-12-08T08:13:55.720Z,18.48
2022-12-08T08:18:59.168Z,19.74
2022-12-08T08:24:02.470Z,22.03
2022-12-08T08:29:07.222Z,18.14
2022-12-08T08:34:12.980Z,17.17
2022-12-08T08:39:16.412Z,19.24
2022-12-08T08:44:21.070Z,19.35
2022-12-08T08:49:24.921Z,19.19
2022-12-08T08:54:29.450Z,19.36
2022-12-08T08:59:39.147Z,20.38
2022-12-08T09:04:45.741Z,20.10
2022-12-08T09:09:51.304Z,20.57
2022-12-08T09:14:59.181Z,21.64
2022-12-08T09:20:03.140Z,19.90
2022-12-08T09:25:09.649Z,21.24
2022-12-08T09:30:16.778Z,21.89
2022-12-08T09:35:20.128Z,23.23
2022-12-08T09:40:26.158Z,25.57
2022-12-08T09:45:36.513Z,23.52
2022-12-08T09:50:47.774Z,24.12
2022-12-08T09:55:53.674Z,24.36
2022-12-08T10:00:58.431Z,23.75
2022-12-08T10:06:09.106Z,26.74
2022-12-08T10:11:15.430Z,27.07
2022-12-08T10:16:29.803Z,25.61
2022-12-08T10:21:40.666Z,27.15
2022-12-08T10:26:46.831Z,27.87
2022-12-08T10:31:51.562Z,26.60
2022-12-08T10:36:56.860Z,28.30
2022-12-08T10:42:07.995Z,30.47
2022-12-08T10:47:15.936Z,32.13
2022-12-08T10:52:24.794Z,31.36
2022-12-08T10:57:30.310Z,34.62
2022-12-08T11:02:35.136Z,32.94
2022-12-08T11:07:39.138Z,34.58
2022-12-08T11:12:45.208Z,36.73
2022-12-08T11:18:01.138Z,35.27
2022-12-08T11:23:21.106Z,36.89
2022-12-08T11:28:27.084Z,36.14
2022-12-08T11:33:31.731Z,35.47
2022-12-08T11:38:42.346Z,33.49
2022-12-08T11:43:50.070Z,34.96
2022-12-08T11:49:05.600Z,33.92
2022-12-08T11:54:18.232Z,34.60
2022-12-08T11:59:28.081Z,34.66
2022-12-08T12:04:36.998Z,35.48
2022-12-08T12:09:49.557Z,38.11
2022-12-08T12:15:07.991Z,40.18
2022-12-08T12:20:18.172Z,37.12
2022-12-08T12:25:23.930Z,37.10
2022-12-08T12:30:37.108Z,35.93
2022-12-08T12:35:45.391Z,56.57
2022-12-08T12:40:51.349Z,38.33
2022-12-08T12:46:16.176Z,38.89
2022-12-08T12:51:45.852Z,39.54
2022-12-08T12:56:54.301Z,41.51
2022-12-08T13:02:00.279Z,38.56
2022-12-08T13:07:06.633Z,40.36
2022-12-08T13:12:11.795Z,40.81
2022-12-08T13:17:18.985Z,39.58
2022-12-08T13:22:41.063Z,40.32
2022-12-08T13:27:55.249Z,41.93
2022-12-08T13:33:17.645Z,41.01
2022-12-08T13:38:23.779Z,42.02
2022-12-08T13:43:47.697Z,44.56
2022-12-08T13:59:53.981Z,46.09
2022-12-08T14:10:28.790Z,43.31
2022-12-08T14:15:38.559Z,43.42
2022-12-08T14:21:18.806Z,45.00
2022-12-08T14:26:08.210Z,44.78
2022-12-08T14:31:14.604Z,45.49
2022-12-08T14:36:21.021Z,47.45
2022-12-08T14:41:28.132Z,47.00
2022-12-08T14:46:32.941Z,44.87
2022-12-08T14:51:36.971Z,46.79
2022-12-08T14:56:42.391Z,49.11
2022-12-08T15:01:50.838Z,47.77
2022-12-08T15:06:59.560Z,42.37
2022-12-08T15:12:03.892Z,44.74
2022-12-08T15:17:24.257Z,44.87
2022-12-08T15:22:30.788Z,53.10
2022-12-08T15:27:49.567Z,46.15
2022-12-08T15:32:54.211Z,47.93
2022-12-08T15:37:59.002Z,48.00
2022-12-08T15:43:02.349Z,47.49
2022-12-08T15:48:05.998Z,46.88
2022-12-08T15:53:13.559Z,47.09
2022-12-08T16:09:18.283Z,46.52
2022-12-08T16:15:23.425Z,47.47
2022-12-08T16:19:47.214Z,48.68
2022-12-08T16:24:52.072Z,48.41
2022-12-08T16:29:59.245Z,46.45
2022-12-08T16:35:06.667Z,49.06
2022-12-08T16:40:12.582Z,51.01
2022-12-08T16:45:17.797Z,47.23
2022-12-08T16:50:23.172Z,45.81
2022-12-08T16:55:30.475Z,46.30
2022-12-08T17:00:36.881Z,45.16
2022-12-08T17:05:41.219Z,47.93
2022-12-08T17:11:05.905Z,44.03
2022-12-08T17:16:12.919Z,43.44
2022-12-08T17:21:19.171Z,40.18
2022-12-08T17:26:26.080Z,39.48
2022-12-08T17:31:31.304Z,36.44
2022-12-08T17:36:37.440Z,38.77
2022-12-08T17:41:42.641Z,35.93
2022-12-08T17:46:52.218Z,40.79
2022-12-08T17:51:57.137Z,33.42
2022-12-08T17:57:01.923Z,32.17
2022-12-08T18:02:05.429Z,30.85
2022-12-08T18:07:10.958Z,30.50
2022-12-08T18:12:23.567Z,31.24
2022-12-08T18:17:27.319Z,34.90
2022-12-08T18:22:30.780Z,37.53
2022-12-08T18:27:43.016Z,31.98
2022-12-08T18:32:46.903Z,31.58
2022-12-08T18:37:54.720Z,32.53
2022-12-08T18:43:01.910Z,41.55
2022-12-08T18:48:05.681Z,30.94
2022-12-08T18:53:09.368Z,31.21
2022-12-08T18:58:14.516Z,31.83
2022-12-08T19:03:17.831Z,32.48
2022-12-08T19:08:23.393Z,34.56
2022-12-08T19:13:30.559Z,36.13
2022-12-08T19:18:33.977Z,36.33
2022-12-08T19:23:42.510Z,38.21
2022-12-08T19:28:49.552Z,37.77
2022-12-08T19:33:55.883Z,36.85
2022-12-08T19:39:18.683Z,37.35
2022-12-08T19:44:42.511Z,37.55
2022-12-08T19:49:48.146Z,36.65
2022-12-08T19:54:54.055Z,37.26
2022-12-08T20:00:01.771Z,38.24
2022-12-08T20:05:05.756Z,37.80
2022-12-08T20:10:10.943Z,36.28
2022-12-08T20:15:18.440Z,36.39
2022-12-08T20:20:21.845Z,35.50
2022-12-08T20:25:30.103Z,36.19
2022-12-08T20:30:35.018Z,36.88
2022-12-08T20:35:40.908Z,35.46
2022-12-08T20:40:47.506Z,34.19
2022-12-08T20:45:52.272Z,34.70
2022-12-08T20:50:55.914Z,37.49
2022-12-08T20:55:59.445Z,37.43
2022-12-08T21:01:08.944Z,39.53
2022-12-08T21:06:14.927Z,39.72
2022-12-08T21:11:18.692Z,39.12
2022-12-08T21:16:23.536Z,39.30
2022-12-08T21:21:29.415Z,39.12
2022-12-08T21:26:32.854Z,39.55
2022-12-08T21:31:40.683Z,42.48
2022-12-08T21:36:44.325Z,58.95
2022-12-08T21:42:05.587Z,47.59
2022-12-08T21:47:13.837Z,42.42
2022-12-08T21:52:17.286Z,43.49
2022-12-08T21:57:20.684Z,43.36
2022-12-08T22:02:25.739Z,40.45
2022-12-08T22:07:32.003Z,41.05
2022-12-08T22:12:35.775Z,43.14
2022-12-08T22:17:41.852Z,39.73
2022-12-08T22:22:50.072Z,39.34
2022-12-08T22:27:53.939Z,39.15
2022-12-08T22:32:58.887Z,39.27
2022-12-08T22:38:02.273Z,40.51
2022-12-08T22:43:05.760Z,39.62
2022-12-08T22:48:10.972Z,40.79
2022-12-08T22:53:17.408Z,41.10
2022-12-08T22:58:23.175Z,40.39
2022-12-08T23:03:28.044Z,41.30
2022-12-08T23:08:31.664Z,41.86
2022-12-08T23:13:36.109Z,42.46
2022-12-08T23:18:43.584Z,41.33
2022-12-08T23:23:49.546Z,40.81
2022-12-08T23:28:56.386Z,40.91
2022-12-08T23:34:03.034Z,40.10
2022-12-08T23:39:07.031Z,41.12
2022-12-08T23:44:12.342Z,40.62
2022-12-08T23:49:17.291Z,39.24
2022-12-08T23:54:21.016Z,39.81
2022-12-08T23:59:24.424Z,39.20
